sensor_id;sensor_type;location;lat;lon;timestamp;P1;durP1;ratioP1;P2;durP2;ratioP2
4023;SDS011;2026;51.002;13.668;2023-04-03T00:00:46;5.37;;;1.80;;
4023;SDS011;2026;51.002;13.668;2023-04-03T00:05:50;2.80;;;1.80;;
4023;SDS011;2026;51.002;13.668;2023-04-03T00:10:55;5.00;;;1.87;;
4023;SDS011;2026;51.002;13.668;2023-04-03T00:15:58;4.67;;;1.80;;
4023;SDS011;2026;51.002;13.668;2023-04-03T00:21:01;5.67;;;2.00;;
4023;SDS011;2026;51.002;13.668;2023-04-03T00:26:05;3.37;;;1.70;;
4023;SDS011;2026;51.002;13.668;2023-04-03T00:31:08;3.63;;;1.80;;
4023;SDS011;2026;51.002;13.668;2023-04-03T00:36:11;4.50;;;1.70;;
4023;SDS011;2026;51.002;13.668;2023-04-03T00:41:18;4.60;;;1.90;;
4023;SDS011;2026;51.002;13.668;2023-04-03T00:46:21;3.43;;;1.70;;
4023;SDS011;2026;51.002;13.668;2023-04-03T00:51:24;3.60;;;1.80;;
4023;SDS011;2026;51.002;13.668;2023-04-03T00:56:30;2.57;;;1.93;;
4023;SDS011;2026;51.002;13.668;2023-04-03T01:01:34;8.30;;;2.27;;
4023;SDS011;2026;51.002;13.668;2023-04-03T01:06:37;4.33;;;1.80;;
4023;SDS011;2026;51.002;13.668;2023-04-03T01:11:43;4.90;;;1.70;;
4023;SDS011;2026;51.002;13.668;2023-04-03T01:16:51;5.47;;;2.03;;
4023;SDS011;2026;51.002;13.668;2023-04-03T01:22:03;2.70;;;1.70;;
4023;SDS011;2026;51.002;13.668;2023-04-03T01:27:15;4.80;;;1.50;;
4023;SDS011;2026;51.002;13.668;2023-04-03T01:32:19;3.97;;;1.77;;
4023;SDS011;2026;51.002;13.668;2023-04-03T01:37:22;2.60;;;1.80;;
4023;SDS011;2026;51.002;13.668;2023-04-03T01:42:26;2.70;;;1.80;;
4023;SDS011;2026;51.002;13.668;2023-04-03T01:47:30;4.87;;;1.77;;
4023;SDS011;2026;51.002;13.668;2023-04-03T01:52:33;6.63;;;1.70;;
4023;SDS011;2026;51.002;13.668;2023-04-03T01:57:36;4.27;;;2.10;;
4023;SDS011;2026;51.002;13.668;2023-04-03T02:02:40;6.47;;;1.80;;
4023;SDS011;2026;51.002;13.668;2023-04-03T02:07:43;5.70;;;2.00;;
4023;SDS011;2026;51.002;13.668;2023-04-03T02:12:47;2.77;;;1.60;;
4023;SDS011;2026;51.002;13.668;2023-04-03T02:17:51;5.10;;;1.90;;
4023;SDS011;2026;51.002;13.668;2023-04-03T02:22:55;3.70;;;1.90;;
4023;SDS011;2026;51.002;13.668;2023-04-03T02:27:59;2.70;;;1.87;;
4023;SDS011;2026;51.002;13.668;2023-04-03T02:33:03;5.30;;;2.20;;
4023;SDS011;2026;51.002;13.668;2023-04-03T02:38:06;3.80;;;2.10;;
4023;SDS011;2026;51.002;13.668;2023-04-03T02:43:09;4.07;;;2.10;;
4023;SDS011;2026;51.002;13.668;2023-04-03T02:48:13;3.80;;;2.13;;
4023;SDS011;2026;51.002;13.668;2023-04-03T02:53:18;3.00;;;1.53;;
4023;SDS011;2026;51.002;13.668;2023-04-03T02:58:23;4.97;;;1.70;;
4023;SDS011;2026;51.002;13.668;2023-04-03T03:03:30;2.50;;;2.03;;
4023;SDS011;2026;51.002;13.668;2023-04-03T03:08:33;3.87;;;1.63;;
4023;SDS011;2026;51.002;13.668;2023-04-03T03:13:36;3.90;;;1.90;;
4023;SDS011;2026;51.002;13.668;2023-04-03T03:18:41;3.27;;;2.00;;
4023;SDS011;2026;51.002;13.668;2023-04-03T03:23:44;5.83;;;2.00;;
4023;SDS011;2026;51.002;13.668;2023-04-03T03:28:47;4.00;;;1.80;;
4023;SDS011;2026;51.002;13.668;2023-04-03T03:33:51;4.63;;;1.83;;
4023;SDS011;2026;51.002;13.668;2023-04-03T03:38:55;4.63;;;2.33;;
4023;SDS011;2026;51.002;13.668;2023-04-03T03:43:58;5.67;;;2.13;;
4023;SDS011;2026;51.002;13.668;2023-04-03T03:49:05;3.53;;;1.80;;
4023;SDS011;2026;51.002;13.668;2023-04-03T03:54:09;5.77;;;2.63;;
4023;SDS011;2026;51.002;13.668;2023-04-03T03:59:13;3.87;;;2.30;;
4023;SDS011;2026;51.002;13.668;2023-04-03T04:04:17;7.03;;;2.03;;
4023;SDS011;2026;51.002;13.668;2023-04-03T04:09:23;6.00;;;2.23;;
4023;SDS011;2026;51.002;13.668;2023-04-03T04:14:26;2.33;;;1.67;;
4023;SDS011;2026;51.002;13.668;2023-04-03T04:19:31;4.50;;;1.97;;
4023;SDS011;2026;51.002;13.668;2023-04-03T04:24:34;4.00;;;2.10;;
4023;SDS011;2026;51.002;13.668;2023-04-03T04:29:41;5.63;;;2.43;;
4023;SDS011;2026;51.002;13.668;2023-04-03T04:34:45;13.37;;;2.93;;
4023;SDS011;2026;51.002;13.668;2023-04-03T04:39:48;6.93;;;2.37;;
4023;SDS011;2026;51.002;13.668;2023-04-03T04:44:52;9.50;;;2.60;;
4023;SDS011;2026;51.002;13.668;2023-04-03T04:49:56;3.53;;;2.40;;
4023;SDS011;2026;51.002;13.668;2023-04-03T04:55:00;7.70;;;2.77;;
4023;SDS011;2026;51.002;13.668;2023-04-03T05:00:03;8.73;;;2.17;;
4023;SDS011;2026;51.002;13.668;2023-04-03T05:05:09;14.67;;;2.73;;
4023;SDS011;2026;51.002;13.668;2023-04-03T05:10:12;3.13;;;2.23;;
4023;SDS011;2026;51.002;13.668;2023-04-03T05:15:16;4.73;;;2.17;;
4023;SDS011;2026;51.002;13.668;2023-04-03T05:20:21;6.50;;;2.53;;
4023;SDS011;2026;51.002;13.668;2023-04-03T05:25:24;5.40;;;2.40;;
4023;SDS011;2026;51.002;13.668;2023-04-03T05:30:30;3.00;;;2.03;;
4023;SDS011;2026;51.002;13.668;2023-04-03T05:35:36;6.03;;;2.27;;
4023;SDS011;2026;51.002;13.668;2023-04-03T05:40:45;5.53;;;2.23;;
4023;SDS011;2026;51.002;13.668;2023-04-03T05:45:50;5.80;;;2.37;;
4023;SDS011;2026;51.002;13.668;2023-04-03T05:50:57;5.80;;;3.30;;
4023;SDS011;2026;51.002;13.668;2023-04-03T05:56:01;8.97;;;2.83;;
4023;SDS011;2026;51.002;13.668;2023-04-03T06:01:07;10.87;;;3.07;;
4023;SDS011;2026;51.002;13.668;2023-04-03T06:06:13;8.20;;;2.93;;
4023;SDS011;2026;51.002;13.668;2023-04-03T06:11:17;6.10;;;2.70;;
4023;SDS011;2026;51.002;13.668;2023-04-03T06:16:20;7.37;;;2.83;;
4023;SDS011;2026;51.002;13.668;2023-04-03T06:21:25;6.57;;;2.33;;
4023;SDS011;2026;51.002;13.668;2023-04-03T06:26:28;6.73;;;2.63;;
4023;SDS011;2026;51.002;13.668;2023-04-03T06:31:31;10.00;;;3.10;;
4023;SDS011;2026;51.002;13.668;2023-04-03T06:36:35;7.87;;;2.30;;
4023;SDS011;2026;51.002;13.668;2023-04-03T06:41:38;6.17;;;2.70;;
4023;SDS011;2026;51.002;13.668;2023-04-03T06:46:42;9.63;;;3.27;;
4023;SDS011;2026;51.002;13.668;2023-04-03T06:51:48;12.83;;;2.50;;
4023;SDS011;2026;51.002;13.668;2023-04-03T06:56:51;4.70;;;2.60;;
4023;SDS011;2026;51.002;13.668;2023-04-03T07:01:54;4.90;;;2.50;;
4023;SDS011;2026;51.002;13.668;2023-04-03T07:06:58;6.90;;;3.43;;
4023;SDS011;2026;51.002;13.668;2023-04-03T07:12:01;7.80;;;2.50;;
4023;SDS011;2026;51.002;13.668;2023-04-03T07:17:04;8.80;;;2.60;;
4023;SDS011;2026;51.002;13.668;2023-04-03T07:22:09;8.33;;;3.13;;
4023;SDS011;2026;51.002;13.668;2023-04-03T07:27:13;10.97;;;3.47;;
4023;SDS011;2026;51.002;13.668;2023-04-03T07:32:16;6.50;;;3.70;;
4023;SDS011;2026;51.002;13.668;2023-04-03T07:37:21;5.70;;;3.10;;
4023;SDS011;2026;51.002;13.668;2023-04-03T07:42:24;10.53;;;3.57;;
4023;SDS011;2026;51.002;13.668;2023-04-03T07:47:29;7.73;;;2.90;;
4023;SDS011;2026;51.002;13.668;2023-04-03T07:52:34;9.87;;;3.17;;
4023;SDS011;2026;51.002;13.668;2023-04-03T07:57:36;6.07;;;2.90;;
4023;SDS011;2026;51.002;13.668;2023-04-03T08:02:39;5.40;;;3.47;;
4023;SDS011;2026;51.002;13.668;2023-04-03T08:07:44;5.07;;;2.93;;
4023;SDS011;2026;51.002;13.668;2023-04-03T08:12:47;8.10;;;3.47;;
4023;SDS011;2026;51.002;13.668;2023-04-03T08:17:50;5.10;;;2.83;;
4023;SDS011;2026;51.002;13.668;2023-04-03T08:22:55;8.40;;;3.00;;
4023;SDS011;2026;51.002;13.668;2023-04-03T08:27:58;8.43;;;3.77;;
4023;SDS011;2026;51.002;13.668;2023-04-03T08:33:01;6.00;;;3.93;;
4023;SDS011;2026;51.002;13.668;2023-04-03T08:38:05;4.53;;;2.93;;
4023;SDS011;2026;51.002;13.668;2023-04-03T08:43:15;6.27;;;2.73;;
4023;SDS011;2026;51.002;13.668;2023-04-03T08:48:33;5.13;;;3.70;;
4023;SDS011;2026;51.002;13.668;2023-04-03T08:53:41;6.60;;;2.90;;
4023;SDS011;2026;51.002;13.668;2023-04-03T08:58:49;4.90;;;2.93;;
4023;SDS011;2026;51.002;13.668;2023-04-03T09:03:56;4.97;;;2.60;;
4023;SDS011;2026;51.002;13.668;2023-04-03T09:09:05;3.73;;;2.70;;
4023;SDS011;2026;51.002;13.668;2023-04-03T09:14:17;4.07;;;2.90;;
4023;SDS011;2026;51.002;13.668;2023-04-03T09:19:29;10.47;;;3.40;;
4023;SDS011;2026;51.002;13.668;2023-04-03T09:24:40;13.80;;;3.30;;
4023;SDS011;2026;51.002;13.668;2023-04-03T09:29:43;6.07;;;2.97;;
4023;SDS011;2026;51.002;13.668;2023-04-03T09:34:47;4.33;;;2.40;;
4023;SDS011;2026;51.002;13.668;2023-04-03T09:39:53;3.70;;;2.50;;
4023;SDS011;2026;51.002;13.668;2023-04-03T09:44:58;4.30;;;2.20;;
4023;SDS011;2026;51.002;13.668;2023-04-03T09:50:10;4.90;;;2.20;;
4023;SDS011;2026;51.002;13.668;2023-04-03T09:55:23;4.90;;;2.60;;
4023;SDS011;2026;51.002;13.668;2023-04-03T10:00:31;7.70;;;2.50;;
4023;SDS011;2026;51.002;13.668;2023-04-03T10:05:38;13.30;;;3.10;;
4023;SDS011;2026;51.002;13.668;2023-04-03T10:10:44;4.80;;;2.40;;
4023;SDS011;2026;51.002;13.668;2023-04-03T10:15:50;6.00;;;2.37;;
4023;SDS011;2026;51.002;13.668;2023-04-03T10:20:59;5.70;;;2.23;;
4023;SDS011;2026;51.002;13.668;2023-04-03T10:26:25;11.13;;;2.73;;
4023;SDS011;2026;51.002;13.668;2023-04-03T10:31:37;3.63;;;2.10;;
4023;SDS011;2026;51.002;13.668;2023-04-03T10:36:48;4.13;;;2.67;;
4023;SDS011;2026;51.002;13.668;2023-04-03T10:42:02;4.73;;;1.73;;
4023;SDS011;2026;51.002;13.668;2023-04-03T10:47:18;4.37;;;1.50;;
4023;SDS011;2026;51.002;13.668;2023-04-03T10:52:25;5.83;;;1.80;;
4023;SDS011;2026;51.002;13.668;2023-04-03T10:57:37;3.57;;;1.70;;
4023;SDS011;2026;51.002;13.668;2023-04-03T11:02:41;4.40;;;2.00;;
4023;SDS011;2026;51.002;13.668;2023-04-03T11:07:52;3.83;;;1.50;;
4023;SDS011;2026;51.002;13.668;2023-04-03T11:13:01;8.80;;;2.03;;
4023;SDS011;2026;51.002;13.668;2023-04-03T11:18:13;3.37;;;1.50;;
4023;SDS011;2026;51.002;13.668;2023-04-03T11:23:21;7.23;;;2.00;;
4023;SDS011;2026;51.002;13.668;2023-04-03T11:28:32;5.23;;;1.50;;
4023;SDS011;2026;51.002;13.668;2023-04-03T11:33:37;2.47;;;1.50;;
4023;SDS011;2026;51.002;13.668;2023-04-03T11:38:47;6.00;;;1.60;;
4023;SDS011;2026;51.002;13.668;2023-04-03T11:43:57;4.07;;;1.87;;
4023;SDS011;2026;51.002;13.668;2023-04-03T11:49:02;2.47;;;1.73;;
4023;SDS011;2026;51.002;13.668;2023-04-03T11:59:48;4.37;;;1.70;;
4023;SDS011;2026;51.002;13.668;2023-04-03T12:10:28;4.47;;;1.70;;
4023;SDS011;2026;51.002;13.668;2023-04-03T12:20:56;2.30;;;1.80;;
4023;SDS011;2026;51.002;13.668;2023-04-03T12:26:05;10.00;;;2.20;;
4023;SDS011;2026;51.002;13.668;2023-04-03T12:31:25;2.80;;;1.90;;
4023;SDS011;2026;51.002;13.668;2023-04-03T12:36:44;4.93;;;1.43;;
4023;SDS011;2026;51.002;13.668;2023-04-03T12:41:56;1.67;;;1.13;;
4023;SDS011;2026;51.002;13.668;2023-04-03T12:52:38;4.23;;;1.73;;
4023;SDS011;2026;51.002;13.668;2023-04-03T12:57:44;2.10;;;1.47;;
4023;SDS011;2026;51.002;13.668;2023-04-03T13:02:48;5.00;;;1.90;;
4023;SDS011;2026;51.002;13.668;2023-04-03T13:07:52;3.40;;;1.87;;
4023;SDS011;2026;51.002;13.668;2023-04-03T13:13:06;3.40;;;1.87;;
4023;SDS011;2026;51.002;13.668;2023-04-03T13:18:25;5.43;;;2.13;;
4023;SDS011;2026;51.002;13.668;2023-04-03T13:23:31;5.00;;;1.70;;
4023;SDS011;2026;51.002;13.668;2023-04-03T13:28:38;3.70;;;2.03;;
4023;SDS011;2026;51.002;13.668;2023-04-03T13:33:51;2.10;;;1.63;;
4023;SDS011;2026;51.002;13.668;2023-04-03T13:38:58;7.00;;;2.93;;
4023;SDS011;2026;51.002;13.668;2023-04-03T13:49:31;4.60;;;1.87;;
4023;SDS011;2026;51.002;13.668;2023-04-03T13:54:38;8.77;;;5.03;;
4023;SDS011;2026;51.002;13.668;2023-04-03T13:59:41;3.07;;;1.77;;
4023;SDS011;2026;51.002;13.668;2023-04-03T14:04:48;2.10;;;1.90;;
4023;SDS011;2026;51.002;13.668;2023-04-03T14:10:01;5.23;;;2.00;;
4023;SDS011;2026;51.002;13.668;2023-04-03T14:15:06;4.40;;;2.00;;
4023;SDS011;2026;51.002;13.668;2023-04-03T14:20:20;3.47;;;1.87;;
4023;SDS011;2026;51.002;13.668;2023-04-03T14:25:25;3.83;;;1.73;;
4023;SDS011;2026;51.002;13.668;2023-04-03T14:30:29;5.37;;;1.97;;
4023;SDS011;2026;51.002;13.668;2023-04-03T14:35:35;2.83;;;1.70;;
4023;SDS011;2026;51.002;13.668;2023-04-03T14:40:39;6.30;;;2.70;;
4023;SDS011;2026;51.002;13.668;2023-04-03T14:45:43;4.83;;;2.10;;
4023;SDS011;2026;51.002;13.668;2023-04-03T14:50:48;6.90;;;2.70;;
4023;SDS011;2026;51.002;13.668;2023-04-03T14:56:10;3.00;;;1.80;;
4023;SDS011;2026;51.002;13.668;2023-04-03T15:01:14;3.57;;;1.90;;
4023;SDS011;2026;51.002;13.668;2023-04-03T15:06:19;4.57;;;1.57;;
4023;SDS011;2026;51.002;13.668;2023-04-03T15:11:22;6.43;;;2.10;;
4023;SDS011;2026;51.002;13.668;2023-04-03T15:16:25;3.97;;;2.20;;
4023;SDS011;2026;51.002;13.668;2023-04-03T15:21:31;5.00;;;1.77;;
4023;SDS011;2026;51.002;13.668;2023-04-03T15:26:34;3.07;;;1.60;;
4023;SDS011;2026;51.002;13.668;2023-04-03T15:31:37;2.10;;;1.60;;
4023;SDS011;2026;51.002;13.668;2023-04-03T15:36:41;2.70;;;1.80;;
4023;SDS011;2026;51.002;13.668;2023-04-03T15:41:44;3.33;;;1.87;;
4023;SDS011;2026;51.002;13.668;2023-04-03T15:46:47;2.73;;;1.57;;
4023;SDS011;2026;51.002;13.668;2023-04-03T15:51:54;3.10;;;1.50;;
4023;SDS011;2026;51.002;13.668;2023-04-03T15:56:57;4.63;;;1.77;;
4023;SDS011;2026;51.002;13.668;2023-04-03T16:02:00;4.23;;;1.93;;
4023;SDS011;2026;51.002;13.668;2023-04-03T16:07:07;3.47;;;1.77;;
4023;SDS011;2026;51.002;13.668;2023-04-03T16:12:10;5.03;;;1.83;;
4023;SDS011;2026;51.002;13.668;2023-04-03T16:17:13;8.97;;;2.07;;
4023;SDS011;2026;51.002;13.668;2023-04-03T16:22:18;4.07;;;1.43;;
4023;SDS011;2026;51.002;13.668;2023-04-03T16:27:21;2.63;;;1.93;;
4023;SDS011;2026;51.002;13.668;2023-04-03T16:32:29;3.93;;;1.90;;
4023;SDS011;2026;51.002;13.668;2023-04-03T16:37:34;10.30;;;2.10;;
4023;SDS011;2026;51.002;13.668;2023-04-03T16:42:37;4.70;;;1.80;;
4023;SDS011;2026;51.002;13.668;2023-04-03T16:47:40;4.60;;;2.07;;
4023;SDS011;2026;51.002;13.668;2023-04-03T16:52:46;3.30;;;1.70;;
4023;SDS011;2026;51.002;13.668;2023-04-03T16:57:49;3.30;;;1.87;;
4023;SDS011;2026;51.002;13.668;2023-04-03T17:02:52;2.60;;;1.60;;
4023;SDS011;2026;51.002;13.668;2023-04-03T17:07:57;2.10;;;1.73;;
4023;SDS011;2026;51.002;13.668;2023-04-03T17:13:00;2.00;;;1.70;;
4023;SDS011;2026;51.002;13.668;2023-04-03T17:18:03;4.17;;;1.70;;
4023;SDS011;2026;51.002;13.668;2023-04-03T17:23:07;2.30;;;1.43;;
4023;SDS011;2026;51.002;13.668;2023-04-03T17:28:10;5.93;;;1.40;;
4023;SDS011;2026;51.002;13.668;2023-04-03T17:33:13;4.57;;;1.73;;
4023;SDS011;2026;51.002;13.668;2023-04-03T17:38:18;2.90;;;1.70;;
4023;SDS011;2026;51.002;13.668;2023-04-03T17:43:21;4.17;;;2.60;;
4023;SDS011;2026;51.002;13.668;2023-04-03T17:48:23;3.67;;;2.07;;
4023;SDS011;2026;51.002;13.668;2023-04-03T17:53:29;5.13;;;2.57;;
4023;SDS011;2026;51.002;13.668;2023-04-03T17:58:32;4.33;;;2.23;;
4023;SDS011;2026;51.002;13.668;2023-04-03T18:03:35;4.70;;;2.70;;
4023;SDS011;2026;51.002;13.668;2023-04-03T18:08:41;2.53;;;1.90;;
4023;SDS011;2026;51.002;13.668;2023-04-03T18:13:46;4.63;;;2.17;;
4023;SDS011;2026;51.002;13.668;2023-04-03T18:18:49;4.30;;;3.60;;
4023;SDS011;2026;51.002;13.668;2023-04-03T18:24:14;3.83;;;3.00;;
4023;SDS011;2026;51.002;13.668;2023-04-03T18:29:19;4.00;;;2.30;;
4023;SDS011;2026;51.002;13.668;2023-04-03T18:34:23;3.40;;;2.43;;
4023;SDS011;2026;51.002;13.668;2023-04-03T18:39:27;7.13;;;3.93;;
4023;SDS011;2026;51.002;13.668;2023-04-03T18:44:30;4.77;;;2.67;;
4023;SDS011;2026;51.002;13.668;2023-04-03T18:49:35;4.83;;;3.47;;
4023;SDS011;2026;51.002;13.668;2023-04-03T18:54:42;7.07;;;3.90;;
4023;SDS011;2026;51.002;13.668;2023-04-03T18:59:45;6.23;;;4.37;;
4023;SDS011;2026;51.002;13.668;2023-04-03T19:04:48;9.20;;;4.00;;
4023;SDS011;2026;51.002;13.668;2023-04-03T19:09:53;4.20;;;2.70;;
4023;SDS011;2026;51.002;13.668;2023-04-03T19:14:56;8.13;;;5.47;;
4023;SDS011;2026;51.002;13.668;2023-04-03T19:19:59;6.63;;;4.70;;
4023;SDS011;2026;51.002;13.668;2023-04-03T19:25:04;15.20;;;9.80;;
4023;SDS011;2026;51.002;13.668;2023-04-03T19:30:08;13.17;;;7.73;;
4023;SDS011;2026;51.002;13.668;2023-04-03T19:35:12;7.33;;;3.87;;
4023;SDS011;2026;51.002;13.668;2023-04-03T19:40:17;4.47;;;2.47;;
4023;SDS011;2026;51.002;13.668;2023-04-03T19:45:20;7.03;;;2.60;;
4023;SDS011;2026;51.002;13.668;2023-04-03T19:50:23;5.37;;;3.30;;
4023;SDS011;2026;51.002;13.668;2023-04-03T19:55:28;3.50;;;2.67;;
4023;SDS011;2026;51.002;13.668;2023-04-03T20:00:31;4.70;;;3.40;;
4023;SDS011;2026;51.002;13.668;2023-04-03T20:05:34;5.70;;;3.50;;
4023;SDS011;2026;51.002;13.668;2023-04-03T20:10:39;4.97;;;3.20;;
4023;SDS011;2026;51.002;13.668;2023-04-03T20:15:42;10.57;;;6.40;;
4023;SDS011;2026;51.002;13.668;2023-04-03T20:20:51;18.10;;;11.53;;
4023;SDS011;2026;51.002;13.668;2023-04-03T20:25:56;11.67;;;10.40;;
4023;SDS011;2026;51.002;13.668;2023-04-03T20:31:10;8.00;;;5.43;;
4023;SDS011;2026;51.002;13.668;2023-04-03T20:36:14;5.13;;;4.47;;
4023;SDS011;2026;51.002;13.668;2023-04-03T20:41:19;4.33;;;3.00;;
4023;SDS011;2026;51.002;13.668;2023-04-03T20:46:22;13.80;;;9.40;;
4023;SDS011;2026;51.002;13.668;2023-04-03T20:51:48;7.60;;;5.50;;
4023;SDS011;2026;51.002;13.668;2023-04-03T20:56:53;7.73;;;4.47;;
4023;SDS011;2026;51.002;13.668;2023-04-03T21:01:56;6.90;;;4.13;;
4023;SDS011;2026;51.002;13.668;2023-04-03T21:23:37;5.57;;;3.23;;
4023;SDS011;2026;51.002;13.668;2023-04-03T21:28:40;5.30;;;2.80;;
4023;SDS011;2026;51.002;13.668;2023-04-03T21:33:45;4.57;;;2.57;;
4023;SDS011;2026;51.002;13.668;2023-04-03T21:38:48;3.40;;;2.40;;
4023;SDS011;2026;51.002;13.668;2023-04-03T21:43:51;4.20;;;2.40;;
4023;SDS011;2026;51.002;13.668;2023-04-03T21:48:56;5.00;;;2.70;;
4023;SDS011;2026;51.002;13.668;2023-04-03T21:53:59;4.50;;;2.90;;
4023;SDS011;2026;51.002;13.668;2023-04-03T21:59:02;5.27;;;2.73;;
4023;SDS011;2026;51.002;13.668;2023-04-03T22:04:07;11.40;;;3.93;;
4023;SDS011;2026;51.002;13.668;2023-04-03T22:09:10;6.70;;;3.60;;
4023;SDS011;2026;51.002;13.668;2023-04-03T22:14:13;5.10;;;3.00;;
4023;SDS011;2026;51.002;13.668;2023-04-03T22:19:19;4.17;;;3.10;;
4023;SDS011;2026;51.002;13.668;2023-04-03T22:24:22;6.00;;;3.30;;
4023;SDS011;2026;51.002;13.668;2023-04-03T22:29:25;6.60;;;3.30;;
4023;SDS011;2026;51.002;13.668;2023-04-03T22:34:29;7.73;;;3.00;;
4023;SDS011;2026;51.002;13.668;2023-04-03T22:39:32;5.13;;;3.20;;
4023;SDS011;2026;51.002;13.668;2023-04-03T22:44:35;3.83;;;3.20;;
4023;SDS011;2026;51.002;13.668;2023-04-03T22:49:40;4.00;;;3.40;;
4023;SDS011;2026;51.002;13.668;2023-04-03T22:54:42;5.53;;;3.20;;
4023;SDS011;2026;51.002;13.668;2023-04-03T22:59:46;6.17;;;2.97;;
4023;SDS011;2026;51.002;13.668;2023-04-03T23:04:50;5.70;;;3.03;;
4023;SDS011;2026;51.002;13.668;2023-04-03T23:09:53;5.10;;;3.07;;
4023;SDS011;2026;51.002;13.668;2023-04-03T23:14:56;6.60;;;3.37;;
4023;SDS011;2026;51.002;13.668;2023-04-03T23:20:00;7.60;;;3.97;;
4023;SDS011;2026;51.002;13.668;2023-04-03T23:25:04;4.83;;;3.57;;
4023;SDS011;2026;51.002;13.668;2023-04-03T23:30:09;6.93;;;3.33;;
4023;SDS011;2026;51.002;13.668;2023-04-03T23:35:13;8.30;;;3.33;;
4023;SDS011;2026;51.002;13.668;2023-04-03T23:40:17;6.40;;;3.13;;
4023;SDS011;2026;51.002;13.668;2023-04-03T23:45:20;5.00;;;2.77;;
4023;SDS011;2026;51.002;13.668;2023-04-03T23:50:24;4.40;;;2.90;;
4023;SDS011;2026;51.002;13.668;2023-04-03T23:55:27;2.97;;;2.17;;
